FIN574 EFKT-EFHK
Flight info
| Callsign | FIN574 |
|---|---|
| Flight time | 1h 5m |
| Altitude | 33000 |
| Route | TUGPU Y86 LUSEP |
| Aircraft | A320/M-SDE3FGHIRWY/LB1 |
Departure
| Time | 2026-04-23 13:16 |
|---|---|
| Airport | Kittilä International Airport (EFKT) |
Arrival
| Time | 2026-04-23 14:21 |
|---|---|
| Airport | Helsinki Vantaa Airport (EFHK) |
| Time | Latitude | Longitude | Altitude | Speed | Heading |
|---|---|---|---|---|---|
| 2026-04-23 13:00 | 67.69759 | 24.85556 | 639 ft | 0 kts | 77° |
| 2026-04-23 13:07 | 67.69758 | 24.85543 | 644 ft | 4 kts | 78° |
| 2026-04-23 13:08 | 67.69754 | 24.85473 | 640 ft | 4 kts | 89° |
| 2026-04-23 13:08 | 67.69757 | 24.85404 | 641 ft | 4 kts | 114° |
| 2026-04-23 13:08 | 67.69770 | 24.85361 | 645 ft | 1 kts | 167° |
| 2026-04-23 13:08 | 67.69775 | 24.85359 | 642 ft | 1 kts | 167° |
| 2026-04-23 13:12 | 67.69769 | 24.85362 | 645 ft | 4 kts | 167° |
| 2026-04-23 13:13 | 67.69738 | 24.85381 | 644 ft | 9 kts | 167° |
| 2026-04-23 13:13 | 67.69678 | 24.85418 | 642 ft | 8 kts | 167° |
| 2026-04-23 13:13 | 67.69570 | 24.85482 | 642 ft | 12 kts | 174° |
| 2026-04-23 13:13 | 67.69526 | 24.85372 | 645 ft | 8 kts | 252° |
| 2026-04-23 13:14 | 67.69518 | 24.85287 | 646 ft | 6 kts | 255° |
| 2026-04-23 13:14 | 67.69508 | 24.85176 | 646 ft | 11 kts | 256° |
| 2026-04-23 13:14 | 67.69393 | 24.85152 | 648 ft | 27 kts | 167° |
| 2026-04-23 13:14 | 67.69171 | 24.85291 | 650 ft | 32 kts | 166° |
| 2026-04-23 13:15 | 67.69078 | 24.85456 | 653 ft | 9 kts | 131° |
| 2026-04-23 13:15 | 67.69046 | 24.85427 | 652 ft | 4 kts | 265° |
| 2026-04-23 13:15 | 67.69061 | 24.85371 | 654 ft | 7 kts | 329° |
| 2026-04-23 13:15 | 67.69308 | 24.85204 | 649 ft | 76 kts | 346° |
| 2026-04-23 13:16 | 67.70047 | 24.84725 | 642 ft | 142 kts | 346° |
| 2026-04-23 13:16 | 67.71077 | 24.84028 | 1076 ft | 155 kts | 344° |
| 2026-04-23 13:16 | 67.72147 | 24.83401 | 1884 ft | 159 kts | 342° |
| 2026-04-23 13:16 | 67.73310 | 24.82964 | 2272 ft | 184 kts | 4° |
| 2026-04-23 13:17 | 67.74494 | 24.84866 | 2506 ft | 225 kts | 50° |
| 2026-04-23 13:17 | 67.74982 | 24.89002 | 2903 ft | 258 kts | 90° |
| 2026-04-23 13:17 | 67.74565 | 24.93741 | 3645 ft | 271 kts | 109° |
| 2026-04-23 13:17 | 67.73794 | 24.98330 | 4519 ft | 276 kts | 114° |
| 2026-04-23 13:18 | 67.72836 | 25.02763 | 5338 ft | 283 kts | 130° |
| 2026-04-23 13:18 | 67.71283 | 25.05963 | 6151 ft | 289 kts | 154° |
| 2026-04-23 13:18 | 67.69372 | 25.07602 | 6762 ft | 296 kts | 171° |
| 2026-04-23 13:18 | 67.67341 | 25.08812 | 7531 ft | 301 kts | 169° |
| 2026-04-23 13:19 | 67.65291 | 25.10125 | 8357 ft | 306 kts | 168° |
| 2026-04-23 13:19 | 67.63215 | 25.11487 | 9165 ft | 310 kts | 168° |
| 2026-04-23 13:19 | 67.61103 | 25.12872 | 9936 ft | 315 kts | 168° |
| 2026-04-23 13:19 | 67.58916 | 25.14297 | 10272 ft | 335 kts | 168° |
| 2026-04-23 13:20 | 67.56575 | 25.15796 | 10550 ft | 355 kts | 168° |
| 2026-04-23 13:20 | 67.54146 | 25.17341 | 11153 ft | 362 kts | 168° |
| 2026-04-23 13:20 | 67.51694 | 25.18895 | 11838 ft | 368 kts | 168° |
| 2026-04-23 13:20 | 67.49187 | 25.20506 | 12552 ft | 373 kts | 168° |
| 2026-04-23 13:21 | 67.46644 | 25.22154 | 13227 ft | 378 kts | 168° |
| 2026-04-23 13:21 | 67.44072 | 25.23823 | 13873 ft | 383 kts | 168° |
| 2026-04-23 13:21 | 67.41464 | 25.25507 | 14444 ft | 388 kts | 168° |
| 2026-04-23 13:21 | 67.38820 | 25.27206 | 14996 ft | 394 kts | 168° |
| 2026-04-23 13:22 | 67.36168 | 25.28902 | 15542 ft | 400 kts | 168° |
| 2026-04-23 13:22 | 67.33452 | 25.30635 | 16096 ft | 405 kts | 168° |
| 2026-04-23 13:22 | 67.30700 | 25.32393 | 16617 ft | 411 kts | 169° |
| 2026-04-23 13:22 | 67.27861 | 25.33660 | 17155 ft | 413 kts | 179° |
| 2026-04-23 13:23 | 67.24980 | 25.34158 | 17691 ft | 418 kts | 181° |
| 2026-04-23 13:23 | 67.22060 | 25.34634 | 18204 ft | 423 kts | 181° |
| 2026-04-23 13:23 | 67.19094 | 25.35115 | 18654 ft | 428 kts | 181° |
| 2026-04-23 13:23 | 67.16098 | 25.35602 | 19106 ft | 434 kts | 181° |
| 2026-04-23 13:24 | 67.13067 | 25.36104 | 19555 ft | 439 kts | 181° |
| 2026-04-23 13:24 | 67.10036 | 25.36623 | 20000 ft | 444 kts | 181° |
| 2026-04-23 13:24 | 67.06931 | 25.37159 | 20446 ft | 450 kts | 181° |
| 2026-04-23 13:24 | 67.03788 | 25.37691 | 20890 ft | 455 kts | 181° |
| 2026-04-23 13:25 | 67.00612 | 25.38226 | 21335 ft | 460 kts | 181° |
| 2026-04-23 13:25 | 66.97389 | 25.38768 | 21773 ft | 466 kts | 181° |
| 2026-04-23 13:25 | 66.94143 | 25.39310 | 22218 ft | 471 kts | 181° |
| 2026-04-23 13:25 | 66.90854 | 25.39852 | 22660 ft | 476 kts | 181° |
| 2026-04-23 13:26 | 66.87529 | 25.40399 | 23097 ft | 481 kts | 181° |
| 2026-04-23 13:26 | 66.84179 | 25.40956 | 23488 ft | 485 kts | 181° |
| 2026-04-23 13:26 | 66.80784 | 25.41524 | 23866 ft | 490 kts | 181° |
| 2026-04-23 13:26 | 66.77409 | 25.42089 | 24221 ft | 493 kts | 181° |
| 2026-04-23 13:27 | 66.73957 | 25.42656 | 24560 ft | 497 kts | 181° |
| 2026-04-23 13:27 | 66.70488 | 25.43209 | 24902 ft | 501 kts | 182° |
| 2026-04-23 13:27 | 66.66991 | 25.43759 | 25245 ft | 505 kts | 182° |
| 2026-04-23 13:27 | 66.63464 | 25.44321 | 25586 ft | 508 kts | 181° |
| 2026-04-23 13:28 | 66.59924 | 25.44903 | 25922 ft | 512 kts | 181° |
| 2026-04-23 13:28 | 66.56398 | 25.45489 | 26245 ft | 515 kts | 181° |
| 2026-04-23 13:28 | 66.52800 | 25.46081 | 26561 ft | 518 kts | 181° |
| 2026-04-23 13:28 | 66.49189 | 25.46660 | 26879 ft | 521 kts | 182° |
| 2026-04-23 13:29 | 66.45557 | 25.47232 | 27178 ft | 525 kts | 182° |
| 2026-04-23 13:29 | 66.41909 | 25.47803 | 27484 ft | 528 kts | 181° |
| 2026-04-23 13:29 | 66.38216 | 25.48385 | 27800 ft | 531 kts | 182° |
| 2026-04-23 13:29 | 66.34516 | 25.48960 | 28101 ft | 534 kts | 181° |
| 2026-04-23 13:30 | 66.30789 | 25.49542 | 28400 ft | 537 kts | 181° |
| 2026-04-23 13:30 | 66.27090 | 25.50125 | 28686 ft | 540 kts | 181° |
| 2026-04-23 13:30 | 66.23320 | 25.50721 | 28963 ft | 543 kts | 181° |
| 2026-04-23 13:30 | 66.19535 | 25.51317 | 29235 ft | 546 kts | 181° |
| 2026-04-23 13:31 | 66.15719 | 25.51915 | 29502 ft | 549 kts | 181° |
| 2026-04-23 13:31 | 66.11956 | 25.52500 | 29757 ft | 552 kts | 181° |
| 2026-04-23 13:31 | 66.08086 | 25.53087 | 29992 ft | 554 kts | 182° |
| 2026-04-23 13:31 | 66.04238 | 25.53415 | 30247 ft | 553 kts | 185° |
| 2026-04-23 13:32 | 66.00381 | 25.53367 | 30507 ft | 552 kts | 187° |
| 2026-04-23 13:32 | 65.96538 | 25.53030 | 30758 ft | 551 kts | 188° |
| 2026-04-23 13:32 | 65.92752 | 25.52561 | 31009 ft | 551 kts | 189° |
| 2026-04-23 13:32 | 65.88925 | 25.52085 | 31349 ft | 549 kts | 188° |
| 2026-04-23 13:33 | 65.85110 | 25.51691 | 31716 ft | 548 kts | 187° |
| 2026-04-23 13:33 | 65.81302 | 25.51397 | 32077 ft | 546 kts | 186° |
| 2026-04-23 13:33 | 65.77506 | 25.51184 | 32441 ft | 544 kts | 186° |
| 2026-04-23 13:33 | 65.73716 | 25.51021 | 32757 ft | 543 kts | 185° |
| 2026-04-23 13:34 | 65.69948 | 25.50871 | 32838 ft | 537 kts | 185° |
| 2026-04-23 13:34 | 65.62617 | 25.50532 | 32851 ft | 525 kts | 186° |
| 2026-04-23 13:35 | 65.55306 | 25.50079 | 32852 ft | 524 kts | 186° |
| 2026-04-23 13:35 | 65.48054 | 25.49598 | 32859 ft | 524 kts | 186° |
| 2026-04-23 13:36 | 65.40751 | 25.49162 | 32860 ft | 524 kts | 186° |
| 2026-04-23 13:36 | 65.33449 | 25.48756 | 32854 ft | 524 kts | 186° |
| 2026-04-23 13:37 | 65.26162 | 25.48343 | 32848 ft | 523 kts | 186° |
| 2026-04-23 13:37 | 65.18908 | 25.47918 | 32847 ft | 523 kts | 186° |
| 2026-04-23 13:38 | 65.11623 | 25.47501 | 32846 ft | 523 kts | 186° |
| 2026-04-23 13:38 | 65.04368 | 25.47082 | 32840 ft | 523 kts | 186° |
| 2026-04-23 13:39 | 64.97065 | 25.46665 | 32838 ft | 523 kts | 185° |
| 2026-04-23 13:39 | 64.89824 | 25.46257 | 32836 ft | 523 kts | 185° |
| 2026-04-23 13:40 | 64.82522 | 25.45852 | 32841 ft | 524 kts | 185° |
| 2026-04-23 13:40 | 64.75259 | 25.45449 | 32844 ft | 524 kts | 185° |
| 2026-04-23 13:41 | 64.67947 | 25.45031 | 32846 ft | 524 kts | 185° |
| 2026-04-23 13:41 | 64.60703 | 25.44620 | 32844 ft | 524 kts | 185° |
| 2026-04-23 13:42 | 64.53405 | 25.44214 | 32849 ft | 524 kts | 185° |
| 2026-04-23 13:42 | 64.46144 | 25.43807 | 32851 ft | 524 kts | 185° |
| 2026-04-23 13:43 | 64.38860 | 25.43416 | 32857 ft | 524 kts | 185° |
| 2026-04-23 13:43 | 64.31555 | 25.43011 | 32846 ft | 524 kts | 185° |
| 2026-04-23 13:44 | 64.24286 | 25.42610 | 32849 ft | 524 kts | 185° |
| 2026-04-23 13:44 | 64.16972 | 25.42221 | 32864 ft | 524 kts | 185° |
| 2026-04-23 13:45 | 64.09719 | 25.41833 | 32863 ft | 524 kts | 185° |
| 2026-04-23 13:45 | 64.02416 | 25.41446 | 32858 ft | 524 kts | 185° |
| 2026-04-23 13:46 | 63.95108 | 25.41056 | 32856 ft | 524 kts | 185° |
| 2026-04-23 13:46 | 63.87848 | 25.40679 | 32856 ft | 524 kts | 184° |
| 2026-04-23 13:47 | 63.80559 | 25.40294 | 32854 ft | 524 kts | 184° |
| 2026-04-23 13:47 | 63.73268 | 25.39922 | 32859 ft | 524 kts | 184° |
| 2026-04-23 13:48 | 63.66009 | 25.39536 | 32858 ft | 524 kts | 184° |
| 2026-04-23 13:48 | 63.58686 | 25.39149 | 32859 ft | 524 kts | 184° |
| 2026-04-23 13:49 | 63.51426 | 25.38781 | 32856 ft | 524 kts | 184° |
| 2026-04-23 13:49 | 63.44124 | 25.38424 | 32858 ft | 524 kts | 184° |
| 2026-04-23 13:50 | 63.36870 | 25.38041 | 32861 ft | 523 kts | 184° |
| 2026-04-23 13:50 | 63.29568 | 25.37664 | 32858 ft | 523 kts | 184° |
| 2026-04-23 13:51 | 63.22286 | 25.37279 | 32863 ft | 523 kts | 184° |
| 2026-04-23 13:51 | 63.14988 | 25.36908 | 32862 ft | 523 kts | 184° |
| 2026-04-23 13:52 | 63.07744 | 25.36544 | 32866 ft | 523 kts | 184° |
| 2026-04-23 13:52 | 63.00447 | 25.36190 | 32866 ft | 523 kts | 184° |
| 2026-04-23 13:53 | 62.93202 | 25.35836 | 32867 ft | 523 kts | 184° |
| 2026-04-23 13:53 | 62.85905 | 25.35470 | 32864 ft | 523 kts | 184° |
| 2026-04-23 13:54 | 62.78625 | 25.35105 | 32864 ft | 523 kts | 184° |
| 2026-04-23 13:54 | 62.71394 | 25.34747 | 32864 ft | 522 kts | 184° |
| 2026-04-23 13:55 | 62.64129 | 25.34380 | 32860 ft | 522 kts | 184° |
| 2026-04-23 13:55 | 62.56853 | 25.34028 | 32858 ft | 522 kts | 183° |
| 2026-04-23 13:56 | 62.49631 | 25.33680 | 32852 ft | 522 kts | 183° |
| 2026-04-23 13:56 | 62.42353 | 25.33317 | 32851 ft | 522 kts | 184° |
| 2026-04-23 13:57 | 62.35086 | 25.32963 | 32853 ft | 521 kts | 183° |
| 2026-04-23 13:57 | 62.27852 | 25.32620 | 32857 ft | 521 kts | 183° |
| 2026-04-23 13:58 | 62.20587 | 25.32263 | 32862 ft | 521 kts | 183° |
| 2026-04-23 13:58 | 62.13372 | 25.31922 | 32869 ft | 521 kts | 183° |
| 2026-04-23 13:59 | 62.06124 | 25.31587 | 32871 ft | 521 kts | 183° |
| 2026-04-23 13:59 | 61.98870 | 25.31248 | 32869 ft | 521 kts | 183° |
| 2026-04-23 13:59 | 61.95261 | 25.31081 | 32729 ft | 517 kts | 183° |
| 2026-04-23 14:00 | 61.92878 | 25.30974 | 32557 ft | 512 kts | 183° |
| 2026-04-23 14:00 | 61.88180 | 25.30755 | 32202 ft | 507 kts | 183° |
| 2026-04-23 14:00 | 61.84651 | 25.30582 | 31944 ft | 506 kts | 183° |
| 2026-04-23 14:00 | 61.81128 | 25.30409 | 31680 ft | 505 kts | 183° |
| 2026-04-23 14:01 | 61.77621 | 25.30242 | 31425 ft | 502 kts | 182° |
| 2026-04-23 14:01 | 61.74136 | 25.30080 | 30932 ft | 500 kts | 182° |
| 2026-04-23 14:01 | 61.70664 | 25.29921 | 30449 ft | 498 kts | 182° |
| 2026-04-23 14:01 | 61.67199 | 25.29762 | 29968 ft | 497 kts | 182° |
| 2026-04-23 14:02 | 61.63738 | 25.29600 | 29453 ft | 495 kts | 182° |
| 2026-04-23 14:02 | 61.61465 | 25.29496 | 29162 ft | 492 kts | 182° |
| 2026-04-23 14:02 | 61.56947 | 25.29293 | 28560 ft | 487 kts | 182° |
| 2026-04-23 14:02 | 61.53568 | 25.29138 | 28114 ft | 484 kts | 182° |
| 2026-04-23 14:03 | 61.51289 | 25.29032 | 27814 ft | 482 kts | 182° |
| 2026-04-23 14:03 | 61.47982 | 25.28873 | 27371 ft | 479 kts | 182° |
| 2026-04-23 14:03 | 61.43545 | 25.28659 | 26776 ft | 475 kts | 182° |
| 2026-04-23 14:03 | 61.41354 | 25.28556 | 26480 ft | 473 kts | 182° |
| 2026-04-23 14:04 | 61.37005 | 25.28358 | 25877 ft | 470 kts | 182° |
| 2026-04-23 14:04 | 61.33744 | 25.28211 | 25414 ft | 468 kts | 182° |
| 2026-04-23 14:04 | 61.31594 | 25.28114 | 25107 ft | 467 kts | 183° |
| 2026-04-23 14:04 | 61.28347 | 25.27968 | 24629 ft | 465 kts | 183° |
| 2026-04-23 14:05 | 61.25109 | 25.27817 | 24150 ft | 464 kts | 183° |
| 2026-04-23 14:05 | 61.21882 | 25.27666 | 23663 ft | 463 kts | 183° |
| 2026-04-23 14:05 | 61.18657 | 25.27523 | 23125 ft | 462 kts | 183° |
| 2026-04-23 14:05 | 61.15459 | 25.27388 | 22674 ft | 457 kts | 183° |
| 2026-04-23 14:06 | 61.12291 | 25.27252 | 22268 ft | 452 kts | 183° |
| 2026-04-23 14:06 | 61.09137 | 25.27108 | 21809 ft | 449 kts | 183° |
| 2026-04-23 14:06 | 61.06023 | 25.26960 | 21274 ft | 449 kts | 183° |
| 2026-04-23 14:06 | 61.02964 | 25.26813 | 20977 ft | 441 kts | 183° |
| 2026-04-23 14:07 | 60.99903 | 25.26674 | 20536 ft | 439 kts | 183° |
| 2026-04-23 14:07 | 60.93851 | 25.26439 | 19553 ft | 430 kts | 181° |
| 2026-04-23 14:07 | 60.90872 | 25.26516 | 18981 ft | 422 kts | 179° |
| 2026-04-23 14:08 | 60.87966 | 25.26724 | 18568 ft | 414 kts | 178° |
| 2026-04-23 14:08 | 60.85134 | 25.26983 | 18150 ft | 408 kts | 178° |
| 2026-04-23 14:08 | 60.82328 | 25.27250 | 17784 ft | 398 kts | 178° |
| 2026-04-23 14:08 | 60.79589 | 25.27491 | 17364 ft | 390 kts | 178° |
| 2026-04-23 14:09 | 60.76904 | 25.27694 | 16897 ft | 381 kts | 179° |
| 2026-04-23 14:09 | 60.74288 | 25.27864 | 16515 ft | 371 kts | 179° |
| 2026-04-23 14:09 | 60.71739 | 25.28017 | 16130 ft | 361 kts | 179° |
| 2026-04-23 14:09 | 60.69255 | 25.28167 | 15780 ft | 352 kts | 179° |
| 2026-04-23 14:10 | 60.66826 | 25.28314 | 15417 ft | 347 kts | 179° |
| 2026-04-23 14:10 | 60.64445 | 25.28433 | 15076 ft | 345 kts | 182° |
| 2026-04-23 14:10 | 60.62084 | 25.27851 | 14729 ft | 339 kts | 197° |
| 2026-04-23 14:10 | 60.59882 | 25.26301 | 14381 ft | 331 kts | 211° |
| 2026-04-23 14:11 | 60.57934 | 25.23937 | 14051 ft | 322 kts | 225° |
| 2026-04-23 14:11 | 60.56309 | 25.20917 | 13725 ft | 312 kts | 237° |
| 2026-04-23 14:11 | 60.54862 | 25.17650 | 13391 ft | 311 kts | 236° |
| 2026-04-23 14:11 | 60.53408 | 25.14394 | 13050 ft | 310 kts | 236° |
| 2026-04-23 14:12 | 60.51959 | 25.11162 | 12725 ft | 309 kts | 235° |
| 2026-04-23 14:12 | 60.50512 | 25.07949 | 12398 ft | 308 kts | 235° |
| 2026-04-23 14:12 | 60.49064 | 25.04747 | 12068 ft | 307 kts | 235° |
| 2026-04-23 14:12 | 60.47641 | 25.01600 | 11736 ft | 306 kts | 234° |
| 2026-04-23 14:13 | 60.46209 | 24.98426 | 11403 ft | 305 kts | 234° |
| 2026-04-23 14:13 | 60.44777 | 24.95257 | 11062 ft | 304 kts | 234° |
| 2026-04-23 14:13 | 60.43353 | 24.92112 | 10720 ft | 303 kts | 234° |
| 2026-04-23 14:13 | 60.41930 | 24.88979 | 10376 ft | 302 kts | 234° |
| 2026-04-23 14:14 | 60.40502 | 24.85841 | 10011 ft | 302 kts | 233° |
| 2026-04-23 14:14 | 60.39080 | 24.82721 | 9633 ft | 302 kts | 233° |
| 2026-04-23 14:14 | 60.37659 | 24.79598 | 9230 ft | 300 kts | 233° |
| 2026-04-23 14:14 | 60.36250 | 24.76507 | 8862 ft | 298 kts | 232° |
| 2026-04-23 14:15 | 60.34862 | 24.73466 | 8487 ft | 297 kts | 232° |
| 2026-04-23 14:15 | 60.33467 | 24.70412 | 8103 ft | 295 kts | 232° |
| 2026-04-23 14:15 | 60.32081 | 24.67377 | 7714 ft | 293 kts | 231° |
| 2026-04-23 14:15 | 60.30706 | 24.64374 | 7329 ft | 291 kts | 231° |
| 2026-04-23 14:16 | 60.29342 | 24.61407 | 7139 ft | 282 kts | 231° |
| 2026-04-23 14:16 | 60.28028 | 24.58574 | 7005 ft | 271 kts | 228° |
| 2026-04-23 14:16 | 60.26542 | 24.56346 | 6846 ft | 265 kts | 209° |
| 2026-04-23 14:16 | 60.24811 | 24.55162 | 6615 ft | 261 kts | 189° |
| 2026-04-23 14:17 | 60.23018 | 24.55034 | 6075 ft | 268 kts | 168° |
| 2026-04-23 14:17 | 60.21295 | 24.56581 | 5303 ft | 278 kts | 138° |
| 2026-04-23 14:17 | 60.20138 | 24.59723 | 4521 ft | 286 kts | 107° |
| 2026-04-23 14:17 | 60.19925 | 24.63683 | 3699 ft | 289 kts | 76° |
| 2026-04-23 14:18 | 60.20759 | 24.67299 | 3131 ft | 282 kts | 47° |
| 2026-04-23 14:18 | 60.22038 | 24.70166 | 2897 ft | 267 kts | 44° |
| 2026-04-23 14:18 | 60.23268 | 24.72846 | 2563 ft | 251 kts | 43° |
| 2026-04-23 14:18 | 60.24405 | 24.75322 | 2228 ft | 239 kts | 43° |
| 2026-04-23 14:19 | 60.25513 | 24.77735 | 1897 ft | 229 kts | 43° |
| 2026-04-23 14:19 | 60.26540 | 24.79982 | 1599 ft | 209 kts | 43° |
| 2026-04-23 14:19 | 60.27487 | 24.82054 | 1319 ft | 194 kts | 44° |
| 2026-04-23 14:19 | 60.28382 | 24.84010 | 1068 ft | 182 kts | 42° |
| 2026-04-23 14:20 | 60.29190 | 24.85781 | 796 ft | 166 kts | 43° |
| 2026-04-23 14:20 | 60.29937 | 24.87418 | 579 ft | 152 kts | 42° |
| 2026-04-23 14:20 | 60.30626 | 24.88928 | 392 ft | 143 kts | 42° |
| 2026-04-23 14:20 | 60.31291 | 24.90387 | 221 ft | 139 kts | 42° |
| 2026-04-23 14:21 | 60.31883 | 24.91670 | 187 ft | 102 kts | 48° |
| 2026-04-23 14:21 | 60.32248 | 24.92481 | 189 ft | 59 kts | 47° |
| 2026-04-23 14:21 | 60.32418 | 24.92961 | 194 ft | 29 kts | 70° |
| 2026-04-23 14:21 | 60.32471 | 24.93330 | 191 ft | 16 kts | 78° |
| 2026-04-23 14:22 | 60.32495 | 24.93548 | 199 ft | 12 kts | 77° |
| 2026-04-23 14:22 | 60.32512 | 24.93709 | 192 ft | 11 kts | 79° |